Fairview, Oklahoma
Current Conditions -  °F | °C
As of 1:15 PM on Thursday 23 Oct 2014 (Local Time) from KJWG Reporting Station
Scattered Clouds Scattered Clouds  
Wind Chill: 73°   Ceiling: Unl
Heat Index: 73°   Visibility: 10mi
Dew Point: 64°   Wind: 9mph
Humidity: 71%   Direction: 200°SSW
Pressure: 30.11"   Gusts: NA
Location:  36.27°N, 98.48°W
Report Text: KJWG 231815Z AUTO 20008KT 10SM SCT025 23/18 A3011 RMK AO2 T02300175
Loading
Personal Weather Stations






























Interactive Weather Map
Tropical Storm Tracking
New forecast layout! Learn more

10-Day Weather Forecast

Advertisements
Track Severe Weather on mobile